sensor_id;sensor_type;location;lat;lon;timestamp;temperature;humidity
66119;DHT22;52912;48.564;9.302;2023-04-30T00:01:58;11.57;89.53
66119;DHT22;52912;48.564;9.302;2023-04-30T00:04:23;11.50;89.98
66119;DHT22;52912;48.564;9.302;2023-04-30T00:06:49;11.49;89.89
66119;DHT22;52912;48.564;9.302;2023-04-30T00:09:14;11.43;90.19
66119;DHT22;52912;48.564;9.302;2023-04-30T00:11:40;11.43;90.07
66119;DHT22;52912;48.564;9.302;2023-04-30T00:14:05;11.37;90.38
66119;DHT22;52912;48.564;9.302;2023-04-30T00:16:32;11.26;90.47
66119;DHT22;52912;48.564;9.302;2023-04-30T00:18:57;11.20;90.12
66119;DHT22;52912;48.564;9.302;2023-04-30T00:21:23;11.14;90.07
66119;DHT22;52912;48.564;9.302;2023-04-30T00:23:48;11.12;90.17
66119;DHT22;52912;48.564;9.302;2023-04-30T00:26:14;11.12;90.33
66119;DHT22;52912;48.564;9.302;2023-04-30T00:28:39;11.08;90.27
66119;DHT22;52912;48.564;9.302;2023-04-30T00:31:05;11.12;90.36
66119;DHT22;52912;48.564;9.302;2023-04-30T00:33:31;11.12;90.13
66119;DHT22;52912;48.564;9.302;2023-04-30T00:35:57;10.99;90.55
66119;DHT22;52912;48.564;9.302;2023-04-30T00:38:22;11.01;90.66
66119;DHT22;52912;48.564;9.302;2023-04-30T00:40:48;11.01;90.76
66119;DHT22;52912;48.564;9.302;2023-04-30T00:43:13;11.06;90.92
66119;DHT22;52912;48.564;9.302;2023-04-30T00:45:39;11.14;90.58
66119;DHT22;52912;48.564;9.302;2023-04-30T00:48:04;11.15;90.33
66119;DHT22;52912;48.564;9.302;2023-04-30T00:50:31;11.12;90.38
66119;DHT22;52912;48.564;9.302;2023-04-30T00:52:59;11.11;90.66
66119;DHT22;52912;48.564;9.302;2023-04-30T00:55:24;11.09;90.70
66119;DHT22;52912;48.564;9.302;2023-04-30T00:57:50;11.09;90.92
66119;DHT22;52912;48.564;9.302;2023-04-30T01:00:16;11.15;90.62
66119;DHT22;52912;48.564;9.302;2023-04-30T01:02:42;11.06;90.73
66119;DHT22;52912;48.564;9.302;2023-04-30T01:05:08;11.06;90.67
66119;DHT22;52912;48.564;9.302;2023-04-30T01:07:35;11.02;90.73
66119;DHT22;52912;48.564;9.302;2023-04-30T01:10:02;11.08;91.07
66119;DHT22;52912;48.564;9.302;2023-04-30T01:12:31;11.11;90.88
66119;DHT22;52912;48.564;9.302;2023-04-30T01:15:04;11.11;90.63
66119;DHT22;52912;48.564;9.302;2023-04-30T01:17:37;10.99;90.44
66119;DHT22;52912;48.564;9.302;2023-04-30T01:20:04;10.99;90.31
66119;DHT22;52912;48.564;9.302;2023-04-30T01:22:45;11.01;90.04
66119;DHT22;52912;48.564;9.302;2023-04-30T01:25:42;10.94;90.01
66119;DHT22;52912;48.564;9.302;2023-04-30T01:28:13;10.95;90.03
66119;DHT22;52912;48.564;9.302;2023-04-30T01:30:40;10.94;89.96
66119;DHT22;52912;48.564;9.302;2023-04-30T01:33:06;10.85;89.93
66119;DHT22;52912;48.564;9.302;2023-04-30T01:35:55;10.84;90.16
66119;DHT22;52912;48.564;9.302;2023-04-30T01:38:32;10.87;90.22
66119;DHT22;52912;48.564;9.302;2023-04-30T01:41:07;10.91;90.18
66119;DHT22;52912;48.564;9.302;2023-04-30T01:43:39;11.04;89.88
66119;DHT22;52912;48.564;9.302;2023-04-30T01:46:12;11.14;89.48
66119;DHT22;52912;48.564;9.302;2023-04-30T01:48:45;11.06;90.26
66119;DHT22;52912;48.564;9.302;2023-04-30T01:51:18;10.99;90.48
66119;DHT22;52912;48.564;9.302;2023-04-30T01:53:44;11.02;90.34
66119;DHT22;52912;48.564;9.302;2023-04-30T01:56:17;10.84;90.27
66119;DHT22;52912;48.564;9.302;2023-04-30T01:58:47;10.82;90.15
66119;DHT22;52912;48.564;9.302;2023-04-30T02:01:25;10.94;89.77
66119;DHT22;52912;48.564;9.302;2023-04-30T02:03:50;10.92;89.57
66119;DHT22;52912;48.564;9.302;2023-04-30T02:06:16;10.87;89.80
66119;DHT22;52912;48.564;9.302;2023-04-30T02:08:41;10.88;90.16
66119;DHT22;52912;48.564;9.302;2023-04-30T02:11:07;10.82;90.50
66119;DHT22;52912;48.564;9.302;2023-04-30T02:13:32;10.78;90.49
66119;DHT22;52912;48.564;9.302;2023-04-30T02:15:59;10.65;90.64
66119;DHT22;52912;48.564;9.302;2023-04-30T02:18:24;10.67;90.56
66119;DHT22;52912;48.564;9.302;2023-04-30T02:20:50;10.70;90.30
66119;DHT22;52912;48.564;9.302;2023-04-30T02:23:15;10.57;90.58
66119;DHT22;52912;48.564;9.302;2023-04-30T02:25:40;10.53;90.91
66119;DHT22;52912;48.564;9.302;2023-04-30T02:28:06;10.54;91.03
66119;DHT22;52912;48.564;9.302;2023-04-30T02:30:31;10.57;90.88
66119;DHT22;52912;48.564;9.302;2023-04-30T02:32:58;10.49;91.15
66119;DHT22;52912;48.564;9.302;2023-04-30T02:35:24;10.54;91.23
66119;DHT22;52912;48.564;9.302;2023-04-30T02:37:49;10.49;91.23
66119;DHT22;52912;48.564;9.302;2023-04-30T02:40:15;10.36;91.36
66119;DHT22;52912;48.564;9.302;2023-04-30T02:42:40;10.35;91.58
66119;DHT22;52912;48.564;9.302;2023-04-30T02:45:06;10.23;91.76
66119;DHT22;52912;48.564;9.302;2023-04-30T02:47:32;10.15;92.05
66119;DHT22;52912;48.564;9.302;2023-04-30T02:49:59;10.13;92.02
66119;DHT22;52912;48.564;9.302;2023-04-30T02:52:24;10.15;92.09
66119;DHT22;52912;48.564;9.302;2023-04-30T02:54:49;10.13;92.08
66119;DHT22;52912;48.564;9.302;2023-04-30T02:57:15;10.12;91.98
66119;DHT22;52912;48.564;9.302;2023-04-30T02:59:40;10.12;92.10
66119;DHT22;52912;48.564;9.302;2023-04-30T03:02:06;9.98;92.30
66119;DHT22;52912;48.564;9.302;2023-04-30T03:04:31;9.91;92.55
66119;DHT22;52912;48.564;9.302;2023-04-30T03:06:58;9.81;92.77
66119;DHT22;52912;48.564;9.302;2023-04-30T03:09:23;9.70;92.98
66119;DHT22;52912;48.564;9.302;2023-04-30T03:11:49;9.70;93.00
66119;DHT22;52912;48.564;9.302;2023-04-30T03:14:14;9.69;93.07
66119;DHT22;52912;48.564;9.302;2023-04-30T03:16:41;9.71;92.90
66119;DHT22;52912;48.564;9.302;2023-04-30T03:19:06;9.71;92.45
66119;DHT22;52912;48.564;9.302;2023-04-30T03:21:32;9.64;92.66
66119;DHT22;52912;48.564;9.302;2023-04-30T03:23:58;9.65;92.40
66119;DHT22;52912;48.564;9.302;2023-04-30T03:26:24;9.63;92.49
66119;DHT22;52912;48.564;9.302;2023-04-30T03:28:49;9.46;92.73
66119;DHT22;52912;48.564;9.302;2023-04-30T03:31:15;9.27;93.26
66119;DHT22;52912;48.564;9.302;2023-04-30T03:33:40;9.18;93.70
66119;DHT22;52912;48.564;9.302;2023-04-30T03:36:06;9.14;93.93
66119;DHT22;52912;48.564;9.302;2023-04-30T03:38:31;9.27;93.27
66119;DHT22;52912;48.564;9.302;2023-04-30T03:40:58;9.33;93.03
66119;DHT22;52912;48.564;9.302;2023-04-30T03:43:23;9.23;93.17
66119;DHT22;52912;48.564;9.302;2023-04-30T03:45:49;9.14;93.59
66119;DHT22;52912;48.564;9.302;2023-04-30T03:48:14;9.11;93.55
66119;DHT22;52912;48.564;9.302;2023-04-30T03:50:40;8.95;94.10
66119;DHT22;52912;48.564;9.302;2023-04-30T03:53:05;8.87;94.34
66119;DHT22;52912;48.564;9.302;2023-04-30T03:55:31;8.84;94.42
66119;DHT22;52912;48.564;9.302;2023-04-30T03:57:58;8.92;94.23
66119;DHT22;52912;48.564;9.302;2023-04-30T04:00:24;9.02;93.68
66119;DHT22;52912;48.564;9.302;2023-04-30T04:02:49;9.01;93.19
66119;DHT22;52912;48.564;9.302;2023-04-30T04:05:15;8.93;93.51
66119;DHT22;52912;48.564;9.302;2023-04-30T04:07:40;8.81;93.67
66119;DHT22;52912;48.564;9.302;2023-04-30T04:10:06;8.75;94.02
66119;DHT22;52912;48.564;9.302;2023-04-30T04:12:32;8.78;93.94
66119;DHT22;52912;48.564;9.302;2023-04-30T04:14:59;8.80;93.99
66119;DHT22;52912;48.564;9.302;2023-04-30T04:17:24;8.78;93.96
66119;DHT22;52912;48.564;9.302;2023-04-30T04:19:49;8.84;93.51
66119;DHT22;52912;48.564;9.302;2023-04-30T04:22:15;8.82;93.49
66119;DHT22;52912;48.564;9.302;2023-04-30T04:24:40;8.67;93.91
66119;DHT22;52912;48.564;9.302;2023-04-30T04:27:06;8.61;94.25
66119;DHT22;52912;48.564;9.302;2023-04-30T04:29:31;8.65;94.25
66119;DHT22;52912;48.564;9.302;2023-04-30T04:31:58;8.68;93.94
66119;DHT22;52912;48.564;9.302;2023-04-30T04:34:23;8.70;94.17
66119;DHT22;52912;48.564;9.302;2023-04-30T04:36:49;8.61;94.12
66119;DHT22;52912;48.564;9.302;2023-04-30T04:39:14;8.54;94.54
66119;DHT22;52912;48.564;9.302;2023-04-30T04:41:40;8.54;94.72
66119;DHT22;52912;48.564;9.302;2023-04-30T04:44:05;8.61;94.66
66119;DHT22;52912;48.564;9.302;2023-04-30T04:46:31;8.77;93.75
66119;DHT22;52912;48.564;9.302;2023-04-30T04:48:58;8.75;93.42
66119;DHT22;52912;48.564;9.302;2023-04-30T04:51:23;8.71;94.02
66119;DHT22;52912;48.564;9.302;2023-04-30T04:53:49;8.70;94.47
66119;DHT22;52912;48.564;9.302;2023-04-30T04:56:14;8.77;94.30
66119;DHT22;52912;48.564;9.302;2023-04-30T04:58:41;8.77;94.37
66119;DHT22;52912;48.564;9.302;2023-04-30T05:01:07;8.80;94.39
66119;DHT22;52912;48.564;9.302;2023-04-30T05:03:33;8.84;94.22
66119;DHT22;52912;48.564;9.302;2023-04-30T05:06:00;8.89;94.24
66119;DHT22;52912;48.564;9.302;2023-04-30T05:08:25;8.93;94.03
66119;DHT22;52912;48.564;9.302;2023-04-30T05:10:51;8.99;94.07
66119;DHT22;52912;48.564;9.302;2023-04-30T05:13:16;9.11;93.80
66119;DHT22;52912;48.564;9.302;2023-04-30T05:15:42;9.09;93.94
66119;DHT22;52912;48.564;9.302;2023-04-30T05:18:07;9.22;93.52
66119;DHT22;52912;48.564;9.302;2023-04-30T05:20:33;9.32;93.09
66119;DHT22;52912;48.564;9.302;2023-04-30T05:22:59;9.35;92.88
66119;DHT22;52912;48.564;9.302;2023-04-30T05:25:25;9.48;92.64
66119;DHT22;52912;48.564;9.302;2023-04-30T05:27:50;9.61;92.21
66119;DHT22;52912;48.564;9.302;2023-04-30T05:30:16;9.74;91.89
66119;DHT22;52912;48.564;9.302;2023-04-30T05:32:42;9.95;91.02
66119;DHT22;52912;48.564;9.302;2023-04-30T05:35:08;10.06;90.96
66119;DHT22;52912;48.564;9.302;2023-04-30T05:37:33;10.17;90.11
66119;DHT22;52912;48.564;9.302;2023-04-30T05:40:00;10.20;90.11
66119;DHT22;52912;48.564;9.302;2023-04-30T05:42:25;10.22;89.95
66119;DHT22;52912;48.564;9.302;2023-04-30T05:44:51;10.32;89.35
66119;DHT22;52912;48.564;9.302;2023-04-30T05:47:17;10.54;89.14
66119;DHT22;52912;48.564;9.302;2023-04-30T05:49:42;10.54;88.91
66119;DHT22;52912;48.564;9.302;2023-04-30T05:52:07;10.57;88.56
66119;DHT22;52912;48.564;9.302;2023-04-30T05:54:33;10.59;88.71
66119;DHT22;52912;48.564;9.302;2023-04-30T05:57:00;10.67;88.86
66119;DHT22;52912;48.564;9.302;2023-04-30T05:59:25;10.78;88.56
66119;DHT22;52912;48.564;9.302;2023-04-30T06:01:51;10.54;88.29
66119;DHT22;52912;48.564;9.302;2023-04-30T06:04:16;10.46;88.94
66119;DHT22;52912;48.564;9.302;2023-04-30T06:06:42;10.35;89.41
66119;DHT22;52912;48.564;9.302;2023-04-30T06:09:07;10.40;89.50
66119;DHT22;52912;48.564;9.302;2023-04-30T06:11:33;10.52;89.31
66119;DHT22;52912;48.564;9.302;2023-04-30T06:14:00;10.72;88.86
66119;DHT22;52912;48.564;9.302;2023-04-30T06:16:25;10.91;88.25
66119;DHT22;52912;48.564;9.302;2023-04-30T06:18:51;10.92;87.94
66119;DHT22;52912;48.564;9.302;2023-04-30T06:21:16;11.06;87.77
66119;DHT22;52912;48.564;9.302;2023-04-30T06:23:42;11.26;87.40
66119;DHT22;52912;48.564;9.302;2023-04-30T06:26:07;11.01;87.39
66119;DHT22;52912;48.564;9.302;2023-04-30T06:28:32;11.11;87.65
66119;DHT22;52912;48.564;9.302;2023-04-30T06:30:59;11.15;87.09
66119;DHT22;52912;48.564;9.302;2023-04-30T06:33:25;11.14;87.33
66119;DHT22;52912;48.564;9.302;2023-04-30T06:35:50;11.32;87.30
66119;DHT22;52912;48.564;9.302;2023-04-30T06:38:16;11.34;86.43
66119;DHT22;52912;48.564;9.302;2023-04-30T06:40:41;11.47;86.62
66119;DHT22;52912;48.564;9.302;2023-04-30T06:43:07;11.34;86.04
66119;DHT22;52912;48.564;9.302;2023-04-30T06:45:32;11.49;86.09
66119;DHT22;52912;48.564;9.302;2023-04-30T06:47:59;11.63;85.46
66119;DHT22;52912;48.564;9.302;2023-04-30T06:50:24;11.78;85.19
66119;DHT22;52912;48.564;9.302;2023-04-30T06:52:50;11.82;85.09
66119;DHT22;52912;48.564;9.302;2023-04-30T06:55:15;11.68;84.58
66119;DHT22;52912;48.564;9.302;2023-04-30T06:57:41;11.96;84.47
66119;DHT22;52912;48.564;9.302;2023-04-30T07:00:07;11.78;84.00
66119;DHT22;52912;48.564;9.302;2023-04-30T07:02:32;11.79;84.54
66119;DHT22;52912;48.564;9.302;2023-04-30T07:04:59;12.06;83.98
66119;DHT22;52912;48.564;9.302;2023-04-30T07:07:25;12.04;83.92
66119;DHT22;52912;48.564;9.302;2023-04-30T07:09:50;12.06;84.46
66119;DHT22;52912;48.564;9.302;2023-04-30T07:12:15;12.01;83.86
66119;DHT22;52912;48.564;9.302;2023-04-30T07:14:41;12.05;83.83
66119;DHT22;52912;48.564;9.302;2023-04-30T07:17:07;12.21;83.75
66119;DHT22;52912;48.564;9.302;2023-04-30T07:19:32;12.21;83.25
66119;DHT22;52912;48.564;9.302;2023-04-30T07:21:59;12.28;82.70
66119;DHT22;52912;48.564;9.302;2023-04-30T07:24:25;12.41;82.72
66119;DHT22;52912;48.564;9.302;2023-04-30T07:26:50;12.41;82.47
66119;DHT22;52912;48.564;9.302;2023-04-30T07:29:16;12.61;83.16
66119;DHT22;52912;48.564;9.302;2023-04-30T07:31:41;12.91;81.48
66119;DHT22;52912;48.564;9.302;2023-04-30T07:34:06;13.13;80.35
66119;DHT22;52912;48.564;9.302;2023-04-30T07:36:32;12.95;79.81
66119;DHT22;52912;48.564;9.302;2023-04-30T07:38:59;13.03;79.57
66119;DHT22;52912;48.564;9.302;2023-04-30T07:41:24;13.29;79.12
66119;DHT22;52912;48.564;9.302;2023-04-30T07:43:50;13.64;78.06
66119;DHT22;52912;48.564;9.302;2023-04-30T07:46:15;13.79;77.51
66119;DHT22;52912;48.564;9.302;2023-04-30T07:48:41;13.95;76.13
66119;DHT22;52912;48.564;9.302;2023-04-30T07:51:06;14.05;75.92
66119;DHT22;52912;48.564;9.302;2023-04-30T07:53:31;14.08;76.08
66119;DHT22;52912;48.564;9.302;2023-04-30T07:55:58;14.09;76.38
66119;DHT22;52912;48.564;9.302;2023-04-30T07:58:24;14.12;74.84
66119;DHT22;52912;48.564;9.302;2023-04-30T08:00:49;14.48;74.82
66119;DHT22;52912;48.564;9.302;2023-04-30T08:03:15;14.82;73.53
66119;DHT22;52912;48.564;9.302;2023-04-30T08:05:40;14.68;72.01
66119;DHT22;52912;48.564;9.302;2023-04-30T08:08:06;14.92;71.53
66119;DHT22;52912;48.564;9.302;2023-04-30T08:10:32;14.77;71.43
66119;DHT22;52912;48.564;9.302;2023-04-30T08:12:59;15.09;70.61
66119;DHT22;52912;48.564;9.302;2023-04-30T08:15:25;15.18;70.35
66119;DHT22;52912;48.564;9.302;2023-04-30T08:17:51;15.32;69.76
66119;DHT22;52912;48.564;9.302;2023-04-30T08:20:17;15.72;69.64
66119;DHT22;52912;48.564;9.302;2023-04-30T08:22:42;15.58;69.22
66119;DHT22;52912;48.564;9.302;2023-04-30T08:25:09;15.85;69.59
66119;DHT22;52912;48.564;9.302;2023-04-30T08:27:35;15.64;68.99
66119;DHT22;52912;48.564;9.302;2023-04-30T08:30:02;15.78;68.06
66119;DHT22;52912;48.564;9.302;2023-04-30T08:32:28;15.82;68.39
66119;DHT22;52912;48.564;9.302;2023-04-30T08:34:53;16.17;68.39
66119;DHT22;52912;48.564;9.302;2023-04-30T08:37:19;15.64;68.61
66119;DHT22;52912;48.564;9.302;2023-04-30T08:39:44;15.20;68.99
66119;DHT22;52912;48.564;9.302;2023-04-30T08:42:13;15.22;68.83
66119;DHT22;52912;48.564;9.302;2023-04-30T08:44:38;15.16;69.91
66119;DHT22;52912;48.564;9.302;2023-04-30T08:47:06;14.93;70.34
66119;DHT22;52912;48.564;9.302;2023-04-30T08:49:33;14.92;70.25
66119;DHT22;52912;48.564;9.302;2023-04-30T08:51:59;14.92;70.35
66119;DHT22;52912;48.564;9.302;2023-04-30T08:54:25;15.03;70.03
66119;DHT22;52912;48.564;9.302;2023-04-30T08:56:52;15.16;70.11
66119;DHT22;52912;48.564;9.302;2023-04-30T08:59:17;15.09;69.76
66119;DHT22;52912;48.564;9.302;2023-04-30T09:01:43;15.03;69.01
66119;DHT22;52912;48.564;9.302;2023-04-30T09:04:10;15.09;69.36
66119;DHT22;52912;48.564;9.302;2023-04-30T09:06:35;15.16;69.65
66119;DHT22;52912;48.564;9.302;2023-04-30T09:09:08;15.23;69.50
66119;DHT22;52912;48.564;9.302;2023-04-30T09:11:34;15.23;68.89
66119;DHT22;52912;48.564;9.302;2023-04-30T09:14:00;15.36;68.51
66119;DHT22;52912;48.564;9.302;2023-04-30T09:16:27;15.20;68.83
66119;DHT22;52912;48.564;9.302;2023-04-30T09:18:53;15.08;68.40
66119;DHT22;52912;48.564;9.302;2023-04-30T09:21:32;15.25;68.54
66119;DHT22;52912;48.564;9.302;2023-04-30T09:23:59;15.23;68.17
66119;DHT22;52912;48.564;9.302;2023-04-30T09:26:30;15.29;68.63
66119;DHT22;52912;48.564;9.302;2023-04-30T09:28:57;15.06;67.85
66119;DHT22;52912;48.564;9.302;2023-04-30T09:31:23;15.20;67.74
66119;DHT22;52912;48.564;9.302;2023-04-30T09:33:49;15.03;67.64
66119;DHT22;52912;48.564;9.302;2023-04-30T09:36:14;15.09;67.83
66119;DHT22;52912;48.564;9.302;2023-04-30T09:38:41;15.18;67.63
66119;DHT22;52912;48.564;9.302;2023-04-30T09:41:20;15.25;67.75
66119;DHT22;52912;48.564;9.302;2023-04-30T09:43:46;15.49;66.87
66119;DHT22;52912;48.564;9.302;2023-04-30T09:46:12;15.36;66.90
66119;DHT22;52912;48.564;9.302;2023-04-30T09:48:40;14.89;66.39
66119;DHT22;52912;48.564;9.302;2023-04-30T09:51:06;15.12;66.67
66119;DHT22;52912;48.564;9.302;2023-04-30T09:53:34;15.03;66.23
66119;DHT22;52912;48.564;9.302;2023-04-30T09:56:05;15.03;65.91
66119;DHT22;52912;48.564;9.302;2023-04-30T09:58:35;15.15;65.79
66119;DHT22;52912;48.564;9.302;2023-04-30T10:01:01;15.19;65.13
66119;DHT22;52912;48.564;9.302;2023-04-30T10:03:28;15.10;65.17
66119;DHT22;52912;48.564;9.302;2023-04-30T10:05:55;15.32;65.31
66119;DHT22;52912;48.564;9.302;2023-04-30T10:08:25;15.68;64.32
66119;DHT22;52912;48.564;9.302;2023-04-30T10:10:56;15.78;64.34
66119;DHT22;52912;48.564;9.302;2023-04-30T10:13:25;15.74;65.05
66119;DHT22;52912;48.564;9.302;2023-04-30T10:15:57;15.87;64.56
66119;DHT22;52912;48.564;9.302;2023-04-30T10:18:27;15.88;64.48
66119;DHT22;52912;48.564;9.302;2023-04-30T10:20:54;16.01;63.81
66119;DHT22;52912;48.564;9.302;2023-04-30T10:23:20;15.87;63.52
66119;DHT22;52912;48.564;9.302;2023-04-30T10:25:46;15.78;63.02
66119;DHT22;52912;48.564;9.302;2023-04-30T10:28:11;15.53;63.65
66119;DHT22;52912;48.564;9.302;2023-04-30T10:30:40;15.87;63.42
66119;DHT22;52912;48.564;9.302;2023-04-30T10:33:10;15.89;63.70
66119;DHT22;52912;48.564;9.302;2023-04-30T10:35:44;16.04;63.64
66119;DHT22;52912;48.564;9.302;2023-04-30T10:38:14;15.81;63.62
66119;DHT22;52912;48.564;9.302;2023-04-30T10:40:44;15.84;63.61
66119;DHT22;52912;48.564;9.302;2023-04-30T10:43:12;16.01;63.85
66119;DHT22;52912;48.564;9.302;2023-04-30T10:45:42;15.94;63.78
66119;DHT22;52912;48.564;9.302;2023-04-30T10:48:08;15.74;63.74
66119;DHT22;52912;48.564;9.302;2023-04-30T10:50:38;15.67;63.57
66119;DHT22;52912;48.564;9.302;2023-04-30T10:53:04;15.75;63.32
66119;DHT22;52912;48.564;9.302;2023-04-30T10:55:30;15.70;63.63
66119;DHT22;52912;48.564;9.302;2023-04-30T10:57:57;15.89;63.36
66119;DHT22;52912;48.564;9.302;2023-04-30T11:00:25;15.96;63.93
66119;DHT22;52912;48.564;9.302;2023-04-30T11:02:56;16.06;63.84
66119;DHT22;52912;48.564;9.302;2023-04-30T11:05:34;15.84;63.33
66119;DHT22;52912;48.564;9.302;2023-04-30T11:07:59;15.70;63.36
66119;DHT22;52912;48.564;9.302;2023-04-30T11:10:27;16.01;63.84
66119;DHT22;52912;48.564;9.302;2023-04-30T11:12:54;15.85;63.40
66119;DHT22;52912;48.564;9.302;2023-04-30T11:15:20;15.98;62.50
66119;DHT22;52912;48.564;9.302;2023-04-30T11:17:49;15.61;63.24
66119;DHT22;52912;48.564;9.302;2023-04-30T11:20:21;15.78;63.55
66119;DHT22;52912;48.564;9.302;2023-04-30T11:22:47;15.82;62.93
66119;DHT22;52912;48.564;9.302;2023-04-30T11:25:17;16.08;63.07
66119;DHT22;52912;48.564;9.302;2023-04-30T11:27:43;16.40;63.47
66119;DHT22;52912;48.564;9.302;2023-04-30T11:30:10;16.17;62.55
66119;DHT22;52912;48.564;9.302;2023-04-30T11:32:37;16.54;62.12
66119;DHT22;52912;48.564;9.302;2023-04-30T11:35:04;16.82;61.68
66119;DHT22;52912;48.564;9.302;2023-04-30T11:37:33;16.13;61.99
66119;DHT22;52912;48.564;9.302;2023-04-30T11:40:00;16.53;61.84
66119;DHT22;52912;48.564;9.302;2023-04-30T11:42:26;16.69;61.45
66119;DHT22;52912;48.564;9.302;2023-04-30T11:44:51;16.39;61.60
66119;DHT22;52912;48.564;9.302;2023-04-30T11:47:17;16.20;61.77
66119;DHT22;52912;48.564;9.302;2023-04-30T11:49:44;16.36;61.87
66119;DHT22;52912;48.564;9.302;2023-04-30T11:52:11;16.50;62.46
66119;DHT22;52912;48.564;9.302;2023-04-30T11:54:38;16.32;62.50
66119;DHT22;52912;48.564;9.302;2023-04-30T11:57:04;16.15;61.91
66119;DHT22;52912;48.564;9.302;2023-04-30T11:59:30;16.15;61.70
66119;DHT22;52912;48.564;9.302;2023-04-30T12:01:56;16.22;61.98
66119;DHT22;52912;48.564;9.302;2023-04-30T12:04:21;16.81;60.77
66119;DHT22;52912;48.564;9.302;2023-04-30T12:06:47;16.26;61.54
66119;DHT22;52912;48.564;9.302;2023-04-30T12:09:13;16.60;61.77
66119;DHT22;52912;48.564;9.302;2023-04-30T12:11:40;16.39;61.15
66119;DHT22;52912;48.564;9.302;2023-04-30T12:14:06;16.30;61.69
66119;DHT22;52912;48.564;9.302;2023-04-30T12:16:39;16.86;61.21
66119;DHT22;52912;48.564;9.302;2023-04-30T12:19:05;16.75;60.13
66119;DHT22;52912;48.564;9.302;2023-04-30T12:21:31;16.78;60.74
66119;DHT22;52912;48.564;9.302;2023-04-30T12:23:56;16.72;60.02
66119;DHT22;52912;48.564;9.302;2023-04-30T12:26:23;16.77;60.27
66119;DHT22;52912;48.564;9.302;2023-04-30T12:28:50;17.03;59.79
66119;DHT22;52912;48.564;9.302;2023-04-30T12:31:16;17.13;60.09
66119;DHT22;52912;48.564;9.302;2023-04-30T12:33:42;16.75;60.25
66119;DHT22;52912;48.564;9.302;2023-04-30T12:36:09;16.92;60.53
66119;DHT22;52912;48.564;9.302;2023-04-30T12:38:34;17.46;61.02
66119;DHT22;52912;48.564;9.302;2023-04-30T12:41:03;16.86;60.81
66119;DHT22;52912;48.564;9.302;2023-04-30T12:43:28;17.13;60.98
66119;DHT22;52912;48.564;9.302;2023-04-30T12:45:55;16.92;59.94
66119;DHT22;52912;48.564;9.302;2023-04-30T12:48:22;16.86;60.29
66119;DHT22;52912;48.564;9.302;2023-04-30T12:50:52;17.30;60.47
66119;DHT22;52912;48.564;9.302;2023-04-30T12:53:18;17.31;59.84
66119;DHT22;52912;48.564;9.302;2023-04-30T12:56:07;17.18;59.83
66119;DHT22;52912;48.564;9.302;2023-04-30T12:58:32;17.29;59.86
66119;DHT22;52912;48.564;9.302;2023-04-30T13:00:59;17.19;59.51
66119;DHT22;52912;48.564;9.302;2023-04-30T13:03:24;17.22;60.47
66119;DHT22;52912;48.564;9.302;2023-04-30T13:05:51;17.84;58.34
66119;DHT22;52912;48.564;9.302;2023-04-30T13:08:17;18.20;57.57
66119;DHT22;52912;48.564;9.302;2023-04-30T13:10:43;18.78;56.55
66119;DHT22;52912;48.564;9.302;2023-04-30T13:13:09;18.34;57.42
66119;DHT22;52912;48.564;9.302;2023-04-30T13:15:35;18.92;56.30
66119;DHT22;52912;48.564;9.302;2023-04-30T13:18:02;19.24;56.33
66119;DHT22;52912;48.564;9.302;2023-04-30T13:20:27;19.27;56.23
66119;DHT22;52912;48.564;9.302;2023-04-30T13:22:52;19.57;55.64
66119;DHT22;52912;48.564;9.302;2023-04-30T13:25:18;19.30;55.73
66119;DHT22;52912;48.564;9.302;2023-04-30T13:27:44;19.78;53.99
66119;DHT22;52912;48.564;9.302;2023-04-30T13:30:10;19.43;55.03
66119;DHT22;52912;48.564;9.302;2023-04-30T13:32:35;19.10;55.27
66119;DHT22;52912;48.564;9.302;2023-04-30T13:35:03;18.72;56.25
66119;DHT22;52912;48.564;9.302;2023-04-30T13:37:28;18.46;56.90
66119;DHT22;52912;48.564;9.302;2023-04-30T13:39:54;17.95;57.67
66119;DHT22;52912;48.564;9.302;2023-04-30T13:42:19;17.75;58.00
66119;DHT22;52912;48.564;9.302;2023-04-30T13:44:44;18.32;57.42
66119;DHT22;52912;48.564;9.302;2023-04-30T13:47:10;18.57;56.86
66119;DHT22;52912;48.564;9.302;2023-04-30T13:49:35;18.54;56.74
66119;DHT22;52912;48.564;9.302;2023-04-30T13:52:03;18.32;56.91
66119;DHT22;52912;48.564;9.302;2023-04-30T13:54:28;18.60;56.42
66119;DHT22;52912;48.564;9.302;2023-04-30T13:56:54;17.81;57.21
66119;DHT22;52912;48.564;9.302;2023-04-30T13:59:19;17.79;57.98
66119;DHT22;52912;48.564;9.302;2023-04-30T14:01:45;18.22;57.50
66119;DHT22;52912;48.564;9.302;2023-04-30T14:04:10;17.77;58.47
66119;DHT22;52912;48.564;9.302;2023-04-30T14:06:36;18.01;57.55
66119;DHT22;52912;48.564;9.302;2023-04-30T14:09:03;17.88;57.65
66119;DHT22;52912;48.564;9.302;2023-04-30T14:11:28;17.64;58.08
66119;DHT22;52912;48.564;9.302;2023-04-30T14:13:54;17.57;58.40
66119;DHT22;52912;48.564;9.302;2023-04-30T14:16:19;17.73;58.57
66119;DHT22;52912;48.564;9.302;2023-04-30T14:18:45;17.40;57.78
66119;DHT22;52912;48.564;9.302;2023-04-30T14:21:10;17.77;58.08
66119;DHT22;52912;48.564;9.302;2023-04-30T14:23:36;17.84;57.28
66119;DHT22;52912;48.564;9.302;2023-04-30T14:26:02;17.86;56.72
66119;DHT22;52912;48.564;9.302;2023-04-30T14:28:28;17.85;56.70
66119;DHT22;52912;48.564;9.302;2023-04-30T14:30:53;18.01;56.47
66119;DHT22;52912;48.564;9.302;2023-04-30T14:33:19;18.02;56.61
66119;DHT22;52912;48.564;9.302;2023-04-30T14:35:44;18.13;56.70
66119;DHT22;52912;48.564;9.302;2023-04-30T14:38:10;17.92;57.15
66119;DHT22;52912;48.564;9.302;2023-04-30T14:40:35;17.74;56.74
66119;DHT22;52912;48.564;9.302;2023-04-30T14:43:02;17.91;56.99
66119;DHT22;52912;48.564;9.302;2023-04-30T14:45:27;17.75;57.17
66119;DHT22;52912;48.564;9.302;2023-04-30T14:47:53;17.89;57.25
66119;DHT22;52912;48.564;9.302;2023-04-30T14:50:18;17.86;57.65
66119;DHT22;52912;48.564;9.302;2023-04-30T14:52:44;17.88;57.73
66119;DHT22;52912;48.564;9.302;2023-04-30T14:55:09;17.95;56.91
66119;DHT22;52912;48.564;9.302;2023-04-30T14:57:35;18.01;56.39
66119;DHT22;52912;48.564;9.302;2023-04-30T15:00:02;18.12;56.10
66119;DHT22;52912;48.564;9.302;2023-04-30T15:02:27;18.36;56.72
66119;DHT22;52912;48.564;9.302;2023-04-30T15:04:53;18.64;55.46
66119;DHT22;52912;48.564;9.302;2023-04-30T15:07:18;18.60;55.99
66119;DHT22;52912;48.564;9.302;2023-04-30T15:09:44;19.33;55.17
66119;DHT22;52912;48.564;9.302;2023-04-30T15:12:10;18.75;54.43
66119;DHT22;52912;48.564;9.302;2023-04-30T15:14:35;18.53;55.60
66119;DHT22;52912;48.564;9.302;2023-04-30T15:17:02;18.48;54.92
66119;DHT22;52912;48.564;9.302;2023-04-30T15:19:28;18.20;55.20
66119;DHT22;52912;48.564;9.302;2023-04-30T15:21:53;18.44;55.59
66119;DHT22;52912;48.564;9.302;2023-04-30T15:24:19;18.74;55.56
66119;DHT22;52912;48.564;9.302;2023-04-30T15:26:44;18.51;54.99
66119;DHT22;52912;48.564;9.302;2023-04-30T15:29:10;18.43;54.77